Hit Tracker is now ESPN Home Run Tracker! Hit Tracker founder Greg Rybarczyk is now collaborating with the ESPN Stats & Information Group to continue tracking all MLB home runs, and helping baseball fans know "How Far It Really Went!™" Please credit any information on this site to ESPN Stats & Information Group. For more information and analysis on home runs, please contact founder Greg Rybarczyk. E-Mail ESPN Home Run Tracker
Main Page | Ballparks | Park Overlays | Glossary | Highlight Homers | Feedback | Bio | 3 Types of HR's | AAA Home Run Derby Last Updated: July 4, 2015, 11:09 pm PST
Welcome to the ESPN Home Run Tracker! Check out the ESPN MLB Scoreboard throughout the 2015 season! Contact us at grybar@hittrackeronline.com.
Season:
Ballpark detail for Great American Ball Park
Ballpark # of Home Runs HR per game Avg.
True
Distance
Avg.
Speed
Off
Bat
Avg.
Std.
Dist.
Great American Ball Park 99 2.54 393 102.1 391

Scatter Plot of Home Runs Great American Ball Park
 Overlay Ballpark:
Without range rings   With range rings

2015 Season Home Runs for Great American Ball Park
Click headers to sort
Date Video Path Hitter Hitter
Team
Pitcher Pitcher
Team
INN Ballpark Type/
Luck
True
Dist.
Speed
Off
Bat
Elev.
Angle
Horiz.
Angle
Apex Impact Due To: Std.
Dist.
#
Parks
Wind Temp. ^ Alt.
05/15/15 Video View Belt, Brandon SF Marquis, Jason CIN 1 Great Americ... ND 379 106.7 37.5 63.6 147 -7 4 3 379 30
06/07/15 Video View Bruce, Jay CIN Despaigne, Odrisamer SD 6 Great Americ... PL 345 94.0 37.4 63.2 110 4 4 2 335 1
05/27/15 Video View Barnhart, Tucker CIN Kendrick, Kyle COL 8 Great Americ... PL 374 100.4 35.8 75.7 136 -11 3 2 379 23
06/07/15 Video View Bruce, Jay CIN Despaigne, Odrisamer SD 2 Great Americ... ND 440 107.7 29.9 71.0 103 13 3 2 423 30
06/10/15 Video View De Jesus, Ivan CIN Williams, Jerome PHI 1 Great Americ... JE/L 370 94.2 34.3 107.6 99 12 3 1 354 2
06/21/15 Video View Bruce, Jay CIN Phelps, David MIA 6 Great Americ... PL 382 96.6 36.0 67.6 110 23 3 2 355 2
05/15/15 Video View Cozart, Zack CIN Bumgarner, Madison SF 1 Great Americ... JE 355 94.8 33.7 113.2 97 0 2 2 352 9
05/15/15 Video View Posey, Buster SF Marquis, Jason CIN 3 Great Americ... ND 417 108.7 30.7 119.1 102 -1 2 2 415 30
05/27/15 Video View Arenado, Nolan COL Leake, Mike CIN 1 Great Americ... PL 400 103.1 32.8 106.6 119 -4 2 2 400 30
05/27/15 Video View Blackmon, Charlie COL Leake, Mike CIN 2 Great Americ... PL 379 99.1 33.6 77.0 121 -9 2 2 383 20
05/30/15 Video View Votto, Joey CIN Gonzalez, Gio WSH 3 Great Americ... JE 400 99.9 27.8 96.0 92 -3 2 1 400 15
06/09/15 Video View Frazier, Todd CIN Harang, Aaron PHI 3 Great Americ... ND/L 409 107.6 31.4 124.7 99 2 2 2 403 30
06/09/15 Video View Votto, Joey CIN McGowan, Dustin PHI 7 Great Americ... PL 380 99.8 36.0 70.3 124 6 2 3 370 24
06/20/15 Video View Dietrich, Derek MIA DeSclafani, Anthony CIN 4 Great Americ... ND 435 106.6 31.5 76.1 118 8 2 2 423 30
06/21/15 Video View Bour, Justin MIA Lorenzen, Michael CIN 2 Great Americ... ND 421 109.5 27.7 57.4 80 11 2 1 408 30
05/17/15 Video View Pence, Hunter SF Desclafani, Anthony CIN 3 Great Americ... JE 366 109.6 21.1 122.1 49 1 1 1 365 23
05/17/15 Video View Phillips, Brandon CIN Petit, Yusmeiro SF 5 Great Americ... JE 381 97.3 29.5 103.0 89 1 1 1 378 10
05/17/15 Video View Bruce, Jay CIN Affeldt, Jeremy SF 7 Great Americ... PL 420 106.3 22.5 85.0 73 1 1 0 419 23
04/09/15 Video View Votto, Joey CIN Burnett, A.J. PIT 6 Great Americ... JE 413 101.8 29.0 86.9 106 -2 1 1 414 23
05/29/15 Video View Votto, Joey CIN Strasburg, Stephen WSH 1 Great Americ... JE 398 103.5 23.8 100.8 69 0 1 0 397 18
05/29/15 Video View Frazier, Todd CIN Treinen, Blake WSH 7 Great Americ... ND 420 106.9 29.2 108.2 103 -3 1 2 420 30
06/06/15 Video View Cozart, Zack CIN Cashner, Andrew SD 3 Great Americ... JE 381 98.4 29.0 105.3 90 0 1 1 380 12
06/06/15 Video View Alonso, Yonder SD Cingrani, Tony CIN 7 Great Americ... JE/L 389 98.6 26.8 83.0 82 0 1 1 388 5
06/09/15 Video View Cozart, Zack CIN Harang, Aaron PHI 1 Great Americ... JE 362 99.9 27.5 122.0 68 2 1 1 359 17
06/09/15 Video View Votto, Joey CIN Harang, Aaron PHI 5 Great Americ... JE 395 98.4 32.7 102.0 108 8 1 2 384 7
06/17/15 Video View Cabrera, Miguel DET Cueto, Johnny CIN 6 Great Americ... ND 403 104.0 30.0 67.2 95 2 1 1 399 30
06/19/15 Video View Byrd, Marlon CIN Haren, Dan MIA 4 Great Americ... JE 400 100.6 29.6 83.2 109 -7 1 1 404 15
06/20/15 Video View Dietrich, Derek MIA Parra, Manny CIN 7 Great Americ... JE 361 107.2 22.0 57.1 50 1 1 1 360 16
06/21/15 Video View Frazier, Todd CIN Phelps, David MIA 1 Great Americ... JE 380 96.4 29.9 76.5 86 5 1 1 373 1
07/04/15 Video View Byrd, Marlon CIN Nelson, Jimmy MIL 2 Great Americ... PL 420 109.8 22.6 103.0 64 2 1 1 418 30
07/04/15 Video View Lind, Adam MIL Smith, Josh CIN 4 Great Americ... PL 388 99.1 28.2 75.5 81 3 1 1 383 19
07/04/15 Video View De Jesus, Ivan CIN Nelson, Jimmy MIL 5 Great Americ... JE 353 94.9 30.6 58.6 72 9 1 1 342 5
05/14/15 Video View Byrd, Marlon CIN Romo, Sergio SF 8 Great Americ... PL 390 107.1 22.3 107.1 60 0 0 0 390 25
05/15/15 Video View Hamilton, Billy CIN Bumgarner, Madison SF 5 Great Americ... JE 355 97.0 29.0 117.9 74 0 0 1 354 12
05/16/15 Video View Belt, Brandon SF Leake, Mike CIN 2 Great Americ... PL 420 104.4 25.3 83.9 89 -1 0 1 420 24
05/16/15 Video View Blanco, Gregor SF Leake, Mike CIN 3 Great Americ... JE 410 104.3 23.1 84.4 72 0 0 0 409 15
05/16/15 Video View Crawford, Brandon SF Leake, Mike CIN 5 Great Americ... PL 408 102.1 29.4 79.7 104 -2 0 1 408 28
05/16/15 Video View Bruce, Jay CIN Vogelsong, Ryan SF 6 Great Americ... PL 368 98.8 28.8 68.0 83 -4 0 1 371 23
05/17/15 Video View Belt, Brandon SF Diaz, Jumbo CIN 8 Great Americ... JE 398 102.2 24.9 100.0 76 -1 0 0 398 20
05/11/15 Video View Simmons, Andrelton ATL Leake, Mike CIN 4 Great Americ... JE 404 101.5 26.0 97.2 83 0 0 1 403 15
05/13/15 Video View Byrd, Marlon CIN Stults, Eric ATL 2 Great Americ... JE 353 94.9 31.9 114.7 87 1 0 1 351 8
05/13/15 Video View Frazier, Todd CIN Stults, Eric ATL 3 Great Americ... PL 428 104.3 26.6 90.8 96 0 0 1 427 26
04/28/15 Video View Votto, Joey CIN Lohse, Kyle MIL 1 Great Americ... JE 389 103.0 22.9 80.0 65 0 0 0 389 8
04/29/15 Video View Lind, Adam MIL Lorenzen, Michael CIN 2 Great Americ... JE 415 106.3 21.4 86.5 67 0 0 0 414 18
04/29/15 Video View Davis, Khris MIL Lorenzen, Michael CIN 2 Great Americ... PL 423 105.4 23.5 92.6 79 0 0 0 423 25
04/29/15 Video View Braun, Ryan MIL Lorenzen, Michael CIN 5 Great Americ... ND 431 108.3 24.3 80.3 82 0 0 1 431 30
04/29/15 Video View Barnhart, Tucker CIN Garza, Matt MIL 5 Great Americ... PL 399 100.9 29.8 77.0 99 0 0 1 398 28
04/06/15 Video View Bruce, Jay CIN Liriano, Francisco PIT 4 Great Americ... PL 409 107.4 24.0 74.4 73 0 0 1 409 29
04/09/15 Video View Alvarez, Pedro PIT DeSclafani, Anthony CIN 6 Great Americ... PL 368 97.2 31.1 110.6 92 -1 0 1 368 19
04/10/15 Video View Votto, Joey CIN Lackey, John STL 1 Great Americ... JE 367 99.1 25.8 108.5 68 -1 0 0 367 11
04/10/15 Video View Grichuk, Randal STL Marquis, Jason CIN 2 Great Americ... PL 418 108.2 22.9 101.1 72 0 0 1 418 30
04/10/15 Video View Votto, Joey CIN Lackey, John STL 3 Great Americ... JE 381 102.7 23.6 104.8 65 0 0 0 382 14
04/12/15 Video View Bruce, Jay CIN Martinez, Carlos STL 2 Great Americ... PL 414 102.2 28.6 93.4 105 -3 0 1 416 24
04/12/15 Video View Hamilton, Billy CIN Martinez, Carlos STL 5 Great Americ... PL 398 99.8 28.4 82.8 95 -2 0 1 399 15
04/12/15 Video View Peralta, Jhonny STL Diaz, Jumbo CIN 8 Great Americ... PL 361 97.3 34.6 113.8 108 -2 0 2 361 24
04/12/15 Video View Carpenter, Matt STL Gregg, Kevin CIN 11 Great Americ... JE 411 102.7 24.9 86.2 80 0 0 1 410 13
04/24/15 Video View Rizzo, Anthony CHC Leake, Mike CIN 4 Great Americ... PL 395 103.7 23.8 77.4 70 0 0 1 395 21
05/25/15 Video View Frazier, Todd CIN Butler, Eddie COL 1 Great Americ... JE 398 100.2 31.5 93.5 119 -8 0 2 403 18
05/25/15 Video View Arenado, Nolan COL Marquis, Jason CIN 4 Great Americ... PL 388 101.3 28.3 108.3 88 -3 0 1 390 30
05/25/15 Video View Byrd, Marlon CIN Butler, Eddie COL 6 Great Americ... PL 368 101.3 25.7 65.5 67 -1 0 1 368 22
05/26/15 Video View Hundley, Nick COL Lorenzen, Michael CIN 5 Great Americ... ND 395 103.6 31.4 115.0 102 -2 0 2 395 30
05/27/15 Video View Frazier, Todd CIN Kendrick, Kyle COL 1 Great Americ... JE 394 104.3 22.8 101.2 65 0 0 0 393 15
05/30/15 Video View Taylor, Michael WSH Iglesias, Raisel CIN 6 Great Americ... ND 411 108.3 24.4 108.4 74 -2 0 1 411 30
05/31/15 Video View Phillips, Brandon CIN Roark, Tanner WSH 5 Great Americ... PL 387 99.9 28.9 108.9 83 5 0 1 382 27
06/05/15 Video View Venable, Will SD Moscot, Jon CIN 2 Great Americ... PL 418 108.2 22.1 80.9 66 0 0 0 417 27
06/05/15 Video View Middlebrooks, Will SD Moscot, Jon CIN 3 Great Americ... JE 412 104.9 22.4 85.8 69 0 0 0 411 13
06/05/15 Video View Norris, Derek SD Villarreal, Pedro CIN 7 Great Americ... PL 387 102.5 25.7 108.0 72 1 0 1 386 27
06/06/15 Video View Kemp, Matt SD Lorenzen, Michael CIN 4 Great Americ... JE/L 380 96.7 33.0 81.6 111 -1 0 1 378 4
06/08/15 Video View De Jesus, Ivan CIN Hamels, Cole PHI 6 Great Americ... PL 385 103.0 29.7 119.0 89 -3 0 1 386 30
06/08/15 Video View Cozart, Zack CIN De Fratus, Justin PHI 8 Great Americ... PL 370 97.4 34.0 108.8 109 0 0 2 368 18
06/09/15 Video View Votto, Joey CIN Harang, Aaron PHI 3 Great Americ... JE 412 105.9 21.4 87.2 64 -2 0 0 413 12
06/17/15 Video View Frazier, Todd CIN Price, David DET 4 Great Americ... PL 406 100.7 27.0 84.2 85 2 0 1 403 14
06/17/15 Video View Collins, Tyler DET Mattheus, Ryan CIN 8 Great Americ... JE 369 99.2 26.1 70.1 66 3 0 1 366 8
06/17/15 Video View Frazier, Todd CIN Soria, Joakim DET 13 Great Americ... JE 406 101.4 27.0 97.6 88 -1 0 1 405 20
06/29/15 Video View Dozier, Brian MIN Leake, Mike CIN 4 Great Americ... JE 372 97.1 29.4 109.0 83 3 0 1 368 7
06/30/15 Video View Suarez, Eugenio CIN Hughes, Phil MIN 3 Great Americ... JE 418 104.6 23.3 91.9 76 0 0 0 417 20
07/03/15 Video View Parra, Gerardo MIL Lorenzen, Michael CIN 1 Great Americ... PL 403 99.8 29.6 85.7 103 -1 0 1 403 15
07/03/15 Video View Ramirez, Aramis MIL Lorenzen, Michael CIN 2 Great Americ... PL 416 105.9 23.7 98.3 87 -2 0 1 417 30
07/03/15 Video View Gomez, Carlos MIL Contreras, Carlos CIN 7 Great Americ... PL 362 97.5 32.8 110.2 105 -9 0 2 369 22
05/12/15 Video View Frazier, Todd CIN Foltynewicz, Mike ATL 1 Great Americ... PL 372 97.6 33.2 112.6 102 5 -1 2 367 19
04/26/15 Video View Frazier, Todd CIN Arrieta, Jake CHC 4 Great Americ... PL 365 101.9 26.8 122.5 68 0 -1 1 365 29
04/28/15 Video View Phillips, Brandon CIN Lohse, Kyle MIL 4 Great Americ... JE 413 102.1 26.3 92.0 89 0 -1 1 413 18
04/28/15 Video View Byrd, Marlon CIN Lohse, Kyle MIL 4 Great Americ... PL 386 101.1 26.6 73.5 77 0 -1 1 386 25
04/28/15 Video View Ramirez, Aramis MIL Cueto, Johnny CIN 5 Great Americ... ND 444 114.4 24.6 109.5 82 0 -1 1 444 30
04/28/15 Video View Braun, Ryan MIL Cueto, Johnny CIN 7 Great Americ... PL 405 108.6 23.0 73.1 66 0 -1 0 405 29
04/29/15 Video View Frazier, Todd CIN Garza, Matt MIL 1 Great Americ... JE 382 99.8 35.4 101.9 131 0 -1 3 381 17
04/29/15 Video View Braun, Ryan MIL Diaz, Jumbo CIN 8 Great Americ... PL 421 103.5 27.9 96.3 99 0 -1 1 420 29
04/29/15 Video View Bruce, Jay CIN Jeffress, Jeremy MIL 9 Great Americ... JE 417 102.1 26.8 91.0 90 1 -1 1 414 21
04/06/15 Video View McCutchen, Andrew PIT Gregg, Kevin CIN 8 Great Americ... JE 398 99.9 27.3 83.4 88 0 -1 1 398 12
04/06/15 Video View Frazier, Todd CIN Watson, Tony PIT 8 Great Americ... ND 396 104.4 30.7 117.7 96 0 -1 1 395 30
04/08/15 Video View Frazier, Todd CIN Cole, Gerrit PIT 1 Great Americ... ND 409 105.6 30.6 112.1 104 0 -1 2 408 30
04/11/15 Video View Frazier, Todd CIN Wacha, Michael STL 1 Great Americ... JE 360 105.9 22.9 123.2 53 0 -1 0 360 21
04/24/15 Video View Coghlan, Chris CHC Leake, Mike CIN 7 Great Americ... PL 357 96.4 32.8 114.3 96 -2 -1 1 359 21
05/31/15 Video View Frazier, Todd CIN Roark, Tanner WSH 4 Great Americ... ND 410 106.6 31.7 122.0 99 8 -1 2 401 30
06/30/15 Video View Hunter, Torii MIN Desclafani, Anthony CIN 1 Great Americ... PL 390 100.2 35.2 102.1 128 5 -1 3 383 20
06/30/15 Video View Byrd, Marlon CIN Hughes, Phil MIN 7 Great Americ... PL 395 98.7 31.4 102.7 99 8 -1 1 386 20
04/26/15 Video View Montero, Miguel CHC DeSclafani, Anthony CIN 2 Great Americ... PL 387 100.4 28.5 106.4 88 -1 -2 1 388 30
04/11/15 Video View Adams, Matt STL Cueto, Johnny CIN 4 Great Americ... PL 350 96.2 31.1 58.2 81 0 -2 1 350 25
04/27/15 Video View Bruce, Jay CIN Nelson, Jimmy MIL 2 Great Americ... PL 367 99.2 37.0 75.9 136 0 -3 3 367 17


About HitTracker | Contact Us
© 2006-2015 HitTrackerOnline